createdAt,value
2022-12-20T00:00:18.696Z,94.69
2022-12-20T00:05:42.377Z,94.62
2022-12-20T00:10:45.936Z,94.57
2022-12-20T00:15:48.422Z,94.93
2022-12-20T00:20:58.659Z,95.00
2022-12-20T00:26:05.942Z,95.47
2022-12-20T00:31:10.039Z,95.52
2022-12-20T00:36:12.708Z,95.44
2022-12-20T00:41:20.591Z,95.83
2022-12-20T00:46:24.616Z,95.67
2022-12-20T00:51:29.188Z,95.84
2022-12-20T00:56:31.653Z,95.95
2022-12-20T01:01:35.556Z,95.88
2022-12-20T01:06:38.178Z,96.32
2022-12-20T01:11:40.696Z,96.34
2022-12-20T01:16:47.275Z,96.76
2022-12-20T01:21:49.812Z,96.74
2022-12-20T01:26:52.344Z,96.60
2022-12-20T01:31:54.953Z,96.77
2022-12-20T01:36:57.491Z,97.06
2022-12-20T01:42:00.198Z,97.11
2022-12-20T01:47:03.612Z,97.28
2022-12-20T01:52:13.575Z,97.02
2022-12-20T01:57:24.781Z,97.19
2022-12-20T02:02:27.856Z,97.41
2022-12-20T02:07:34.194Z,97.24
2022-12-20T02:12:41.374Z,97.65
2022-12-20T02:17:51.981Z,97.82
2022-12-20T02:23:00.364Z,98.11
2022-12-20T02:28:06.772Z,98.43
2022-12-20T02:33:11.475Z,99.05
2022-12-20T02:38:19.837Z,99.42
2022-12-20T02:43:27.151Z,99.09
2022-12-20T02:48:33.962Z,99.63
2022-12-20T02:53:38.156Z,99.65
2022-12-20T02:58:49.368Z,99.86
2022-12-20T03:03:52.855Z,99.85
2022-12-20T03:08:55.341Z,99.85
2022-12-20T03:13:57.911Z,99.90
2022-12-20T03:19:00.373Z,99.87
2022-12-20T03:24:02.845Z,99.81
2022-12-20T03:29:05.550Z,99.92
2022-12-20T03:34:08.019Z,99.95
2022-12-20T03:39:10.519Z,99.84
2022-12-20T03:44:13.092Z,99.90
2022-12-20T03:49:15.759Z,99.78
2022-12-20T03:54:18.744Z,99.87
2022-12-20T03:59:21.259Z,99.78
2022-12-20T04:04:23.831Z,99.60
2022-12-20T04:09:26.540Z,99.55
2022-12-20T04:14:29.047Z,99.85
2022-12-20T04:19:31.756Z,99.58
2022-12-20T04:24:34.275Z,99.46
2022-12-20T04:29:36.840Z,99.62
2022-12-20T04:34:39.328Z,99.38
2022-12-20T04:39:41.820Z,99.32
2022-12-20T04:44:44.404Z,99.61
2022-12-20T04:49:46.908Z,99.24
2022-12-20T04:54:49.458Z,99.20
2022-12-20T04:59:52.008Z,99.10
2022-12-20T05:04:54.501Z,98.73
2022-12-20T05:09:56.972Z,98.95
2022-12-20T05:14:59.471Z,98.65
2022-12-20T05:20:02.316Z,98.55
2022-12-20T05:25:08.104Z,98.58
2022-12-20T05:30:11.231Z,98.21
2022-12-20T05:35:14.724Z,98.37
2022-12-20T05:40:18.339Z,98.39
2022-12-20T05:45:21.731Z,98.59
2022-12-20T05:50:24.701Z,98.44
2022-12-20T05:55:27.192Z,98.54
2022-12-20T06:00:29.704Z,98.15
2022-12-20T06:05:32.231Z,98.19
2022-12-20T06:10:34.944Z,98.19
2022-12-20T06:15:38.180Z,98.34
2022-12-20T06:20:40.693Z,98.37
2022-12-20T06:25:43.901Z,98.29
2022-12-20T06:30:52.573Z,98.31
2022-12-20T06:35:55.058Z,98.03
2022-12-20T06:41:35.367Z,98.20
2022-12-20T06:46:37.931Z,98.15
2022-12-20T06:51:40.619Z,98.20
2022-12-20T06:56:43.183Z,98.11
2022-12-20T07:01:45.936Z,98.15
2022-12-20T07:06:48.559Z,97.71
2022-12-20T07:11:52.010Z,97.41
2022-12-20T07:16:54.966Z,97.51
2022-12-20T07:21:57.578Z,97.35
2022-12-20T07:27:00.806Z,97.22
2022-12-20T07:32:03.611Z,97.01
2022-12-20T07:37:06.166Z,96.50
2022-12-20T07:42:09.290Z,96.38
2022-12-20T07:47:12.004Z,95.74
2022-12-20T07:52:17.012Z,95.51
2022-12-20T07:57:24.212Z,95.09
2022-12-20T08:02:33.324Z,94.75
2022-12-20T08:07:38.316Z,94.63
2022-12-20T08:12:42.655Z,94.27
2022-12-20T08:17:45.239Z,93.44
2022-12-20T08:22:47.809Z,92.75
2022-12-20T08:27:50.569Z,92.43
2022-12-20T08:32:53.029Z,92.81
2022-12-20T08:37:56.401Z,92.25
2022-12-20T08:43:00.487Z,92.17
2022-12-20T08:48:04.903Z,92.21
2022-12-20T08:53:07.416Z,92.33
2022-12-20T08:58:09.906Z,92.39
2022-12-20T09:03:14.291Z,92.06
2022-12-20T09:08:16.845Z,91.80
2022-12-20T09:13:19.553Z,91.43
2022-12-20T09:18:22.049Z,91.26
2022-12-20T09:23:24.929Z,90.80
2022-12-20T09:28:27.588Z,90.45
2022-12-20T09:33:34.434Z,88.98
2022-12-20T09:38:37.068Z,88.83
2022-12-20T09:43:41.626Z,89.01
2022-12-20T09:48:45.633Z,88.94
2022-12-20T09:53:52.369Z,88.85
2022-12-20T09:58:58.781Z,89.06
2022-12-20T10:04:12.624Z,89.36
2022-12-20T10:09:32.024Z,90.08
2022-12-20T10:15:15.989Z,90.34
2022-12-20T10:20:27.319Z,90.01
2022-12-20T10:25:36.693Z,89.99
2022-12-20T10:30:42.313Z,89.65
2022-12-20T10:35:45.925Z,89.27
2022-12-20T10:46:34.050Z,87.90
2022-12-20T10:51:36.729Z,86.77
2022-12-20T10:56:39.375Z,86.22
2022-12-20T11:01:47.166Z,85.93
2022-12-20T11:06:51.756Z,85.53
2022-12-20T11:11:57.684Z,83.68
2022-12-20T11:17:07.746Z,84.23
2022-12-20T11:22:14.279Z,85.00
2022-12-20T11:27:27.329Z,84.97
2022-12-20T11:32:52.496Z,85.16
2022-12-20T11:38:02.638Z,85.57
2022-12-20T11:43:25.288Z,85.88
2022-12-20T11:48:38.966Z,85.42
2022-12-20T11:53:48.186Z,85.27
2022-12-20T11:59:00.219Z,85.04
2022-12-20T12:04:04.447Z,85.06
2022-12-20T12:09:12.121Z,85.91
2022-12-20T12:14:27.165Z,86.35
2022-12-20T12:19:31.078Z,86.64
2022-12-20T12:24:39.140Z,86.89
2022-12-20T12:29:41.844Z,86.62
2022-12-20T12:34:48.597Z,86.83
2022-12-20T12:39:56.106Z,86.98
2022-12-20T12:45:03.920Z,87.33
2022-12-20T12:50:21.103Z,87.25
2022-12-20T12:55:29.558Z,87.35
2022-12-20T13:00:55.338Z,87.39
2022-12-20T13:05:58.021Z,87.62
2022-12-20T13:11:01.774Z,87.87
2022-12-20T13:16:09.706Z,87.91
2022-12-20T13:21:17.832Z,88.06
2022-12-20T13:26:49.728Z,88.22
2022-12-20T13:31:54.583Z,88.08
2022-12-20T13:36:59.576Z,88.23
2022-12-20T13:42:16.131Z,87.93
2022-12-20T13:47:19.597Z,88.13
2022-12-20T13:52:28.550Z,88.07
2022-12-20T13:57:41.238Z,88.17
2022-12-20T14:02:44.996Z,88.57
2022-12-20T14:07:55.019Z,88.85
2022-12-20T14:12:58.179Z,88.64
2022-12-20T14:18:05.912Z,88.81
2022-12-20T14:23:16.660Z,89.03
2022-12-20T14:28:30.363Z,89.24
2022-12-20T14:33:32.948Z,89.58
2022-12-20T14:38:35.658Z,90.00
2022-12-20T14:43:38.303Z,90.27
2022-12-20T14:48:41.056Z,90.32
2022-12-20T14:53:45.588Z,90.83
2022-12-20T14:59:13.629Z,91.21
2022-12-20T15:04:36.689Z,91.39
2022-12-20T15:09:39.907Z,91.36
2022-12-20T15:14:42.797Z,91.83
2022-12-20T15:19:45.460Z,91.85
2022-12-20T15:24:48.102Z,91.69
2022-12-20T15:29:50.737Z,91.68
2022-12-20T15:34:53.517Z,91.81
2022-12-20T15:39:56.166Z,91.90
2022-12-20T15:44:58.918Z,91.83
2022-12-20T15:50:01.581Z,91.87
2022-12-20T15:55:04.504Z,92.34
2022-12-20T16:00:07.997Z,92.45
2022-12-20T16:05:13.887Z,92.62
2022-12-20T16:10:17.219Z,92.36
2022-12-20T16:15:22.008Z,92.47
2022-12-20T16:20:24.964Z,92.31
2022-12-20T16:25:32.980Z,92.23
2022-12-20T16:30:35.867Z,92.05
2022-12-20T16:35:38.544Z,92.12
2022-12-20T16:40:41.323Z,91.92
2022-12-20T16:45:43.964Z,91.89
2022-12-20T16:50:46.750Z,91.89
2022-12-20T16:55:49.586Z,91.69
2022-12-20T17:00:52.286Z,91.40
2022-12-20T17:05:57.151Z,91.43
2022-12-20T17:10:59.754Z,91.68
2022-12-20T17:16:02.528Z,91.77
2022-12-20T17:21:34.371Z,91.54
2022-12-20T17:26:37.501Z,91.15
2022-12-20T17:31:43.583Z,91.16
2022-12-20T17:36:47.713Z,91.14
2022-12-20T17:41:51.897Z,91.11
2022-12-20T17:46:56.191Z,90.79
2022-12-20T17:51:58.795Z,90.79
2022-12-20T17:57:01.446Z,90.80
2022-12-20T18:02:18.580Z,90.57
2022-12-20T18:07:21.374Z,90.75
2022-12-20T18:12:24.239Z,90.51
2022-12-20T18:17:27.040Z,90.46
2022-12-20T18:22:32.097Z,90.28
2022-12-20T18:27:39.941Z,90.35
2022-12-20T18:32:42.638Z,90.12
2022-12-20T18:37:45.256Z,90.23
2022-12-20T18:42:47.876Z,90.10
2022-12-20T18:47:50.475Z,90.10
2022-12-20T18:52:57.869Z,89.91
2022-12-20T18:58:03.880Z,89.73
2022-12-20T19:03:06.679Z,89.39
2022-12-20T19:08:09.431Z,89.28
2022-12-20T19:13:12.172Z,89.10
2022-12-20T19:18:15.932Z,89.14
2022-12-20T19:23:20.637Z,88.88
2022-12-20T19:28:23.897Z,88.99
2022-12-20T19:33:26.733Z,88.68
2022-12-20T19:38:29.358Z,88.71
2022-12-20T19:43:32.009Z,88.99
2022-12-20T19:48:35.478Z,88.63
2022-12-20T19:53:40.723Z,88.56
2022-12-20T19:58:44.355Z,88.69
2022-12-20T20:03:47.182Z,88.88
2022-12-20T20:08:50.017Z,88.98
2022-12-20T20:13:53.003Z,88.63
2022-12-20T20:18:55.733Z,88.38
2022-12-20T20:23:58.451Z,87.97
2022-12-20T20:29:02.107Z,87.86
2022-12-20T20:34:04.813Z,87.36
2022-12-20T20:39:07.770Z,87.63
2022-12-20T20:44:12.111Z,87.48
2022-12-20T20:49:14.829Z,87.30
2022-12-20T20:54:17.479Z,87.19
2022-12-20T20:59:22.624Z,86.80
2022-12-20T21:04:25.227Z,86.96
2022-12-20T21:09:28.656Z,86.54
2022-12-20T21:15:02.281Z,86.86
2022-12-20T21:19:54.227Z,86.70
2022-12-20T21:24:57.619Z,86.82
2022-12-20T21:30:00.282Z,86.29
2022-12-20T21:35:03.075Z,86.51
2022-12-20T21:40:07.473Z,86.63
2022-12-20T21:45:11.871Z,86.24
2022-12-20T21:50:14.599Z,85.92
2022-12-20T21:55:17.219Z,85.74
2022-12-20T22:00:21.065Z,85.76
2022-12-20T22:05:23.661Z,85.71
2022-12-20T22:10:26.301Z,85.56
2022-12-20T22:15:28.909Z,85.99
2022-12-20T22:20:31.917Z,86.07
2022-12-20T22:25:38.371Z,86.11
2022-12-20T22:30:42.293Z,85.77
2022-12-20T22:35:44.969Z,86.05
2022-12-20T22:40:47.558Z,85.92
2022-12-20T22:45:57.160Z,85.84
2022-12-20T22:51:00.498Z,86.07
2022-12-20T22:56:04.935Z,86.42
2022-12-20T23:01:10.739Z,86.47
2022-12-20T23:06:16.682Z,86.59
2022-12-20T23:11:25.515Z,86.87
2022-12-20T23:16:28.561Z,86.54
2022-12-20T23:21:34.356Z,86.64
2022-12-20T23:26:38.636Z,86.73
2022-12-20T23:31:41.617Z,86.51
2022-12-20T23:36:44.381Z,86.55
2022-12-20T23:41:47.016Z,86.47
2022-12-20T23:46:49.702Z,86.75
2022-12-20T23:51:52.444Z,86.59
2022-12-20T23:56:55.061Z,86.35
